Time;durP1;ratioP1;P1;durP2;ratioP2;P2;SDS_P1;SDS_P2;PMS_P1;PMS_P2;Temp;Humidity;BMP_temperature;BMP_pressure;BME280_temperature;BME280_humidity;BME280_pressure;Samples;Min_cycle;Max_cycle;Signal;HPM_P1;HPM_P2
2022/07/08 00:02:13;;;;;;;15.10;3.20;;;;;;;13.66;100.00;102141.63;7382819;19;20416;-61
2022/07/08 00:04:43;;;;;;;18.73;3.10;;;;;;;13.67;100.00;102149.50;7391264;19;20411;-62
2022/07/08 00:07:15;;;;;;;15.20;2.80;;;;;;;13.65;100.00;102145.94;7384828;19;20417;-62
2022/07/08 00:09:44;;;;;;;18.60;2.80;;;;;;;13.61;100.00;102141.41;7396258;19;20826;-61
2022/07/08 00:12:14;;;;;;;28.27;4.93;;;;;;;13.61;100.00;102142.31;7386280;19;20418;-61
2022/07/08 00:14:43;;;;;;;27.33;5.37;;;;;;;13.61;100.00;102134.53;7390958;19;20389;-62
2022/07/08 00:17:13;;;;;;;18.03;3.90;;;;;;;13.57;100.00;102136.88;7383493;19;20421;-61
2022/07/08 00:19:42;;;;;;;21.50;3.67;;;;;;;13.59;100.00;102141.31;7389675;19;20386;-62
2022/07/08 00:22:17;;;;;;;12.27;2.93;;;;;;;13.56;100.00;102138.59;7381317;19;20399;-60
2022/07/08 00:24:46;;;;;;;15.87;3.70;;;;;;;13.62;100.00;102127.63;7390297;19;20937;-61
2022/07/08 00:27:16;;;;;;;19.53;3.40;;;;;;;13.52;100.00;102131.44;7384432;19;20436;-62
2022/07/08 00:29:46;;;;;;;13.87;3.10;;;;;;;13.42;100.00;102129.16;7389840;19;20381;-61
2022/07/08 00:32:15;;;;;;;17.07;3.33;;;;;;;13.37;100.00;102123.72;7381148;19;20409;-62
2022/07/08 00:34:51;;;;;;;16.70;3.30;;;;;;;13.36;100.00;102133.22;7390015;19;20412;-60
2022/07/08 00:37:24;;;;;;;14.13;2.97;;;;;;;13.40;100.00;102129.09;7385839;19;20476;-61
2022/07/08 00:39:53;;;;;;;13.70;3.03;;;;;;;13.46;100.00;102125.94;7398582;19;20384;-63
2022/07/08 00:42:23;;;;;;;17.57;3.27;;;;;;;13.33;100.00;102143.41;7389331;19;20405;-61
2022/07/08 00:44:52;;;;;;;17.43;2.60;;;;;;;13.26;100.00;102128.38;7400117;19;20433;-61
2022/07/08 00:47:22;;;;;;;14.77;3.13;;;;;;;13.28;100.00;102126.72;7390354;19;21034;-61
2022/07/08 00:49:52;;;;;;;11.93;2.60;;;;;;;13.23;100.00;102136.00;7398235;19;20386;-62
2022/07/08 00:52:24;;;;;;;10.00;2.23;;;;;;;13.26;100.00;102138.72;7389821;19;20844;-61
2022/07/08 00:54:54;;;;;;;8.30;2.30;;;;;;;13.18;100.00;102142.63;7396819;19;20428;-61
2022/07/08 00:57:24;;;;;;;16.10;2.97;;;;;;;13.28;100.00;102144.00;7388572;19;21038;-61
2022/07/08 00:59:54;;;;;;;12.50;2.23;;;;;;;13.30;100.00;102147.56;7397449;19;20396;-61
2022/07/08 01:02:23;;;;;;;17.70;4.30;;;;;;;13.28;100.00;102147.47;7389121;19;20428;-62
2022/07/08 01:04:53;;;;;;;16.70;3.07;;;;;;;13.31;100.00;102155.41;7392995;19;20434;-61
2022/07/08 01:07:26;;;;;;;15.60;2.50;;;;;;;13.37;100.00;102158.34;7385879;19;20406;-62
2022/07/08 01:09:56;;;;;;;14.57;2.67;;;;;;;13.34;100.00;102155.56;7393893;19;20814;-61
2022/07/08 01:12:26;;;;;;;31.43;3.80;;;;;;;13.47;100.00;102161.44;7385655;19;20786;-61
2022/07/08 01:14:55;;;;;;;12.23;2.40;;;;;;;13.31;100.00;102165.78;7392668;19;21026;-60
2022/07/08 01:17:29;;;;;;;14.50;3.30;;;;;;;13.35;100.00;102172.03;7386062;19;20421;-61
2022/07/08 01:19:58;;;;;;;15.73;3.40;;;;;;;13.37;100.00;102170.38;7394075;19;20389;-62
2022/07/08 01:22:30;;;;;;;17.47;3.30;;;;;;;13.41;100.00;102174.03;7384920;19;20411;-61
2022/07/08 01:25:00;;;;;;;10.60;2.53;;;;;;;13.37;100.00;102175.56;7392357;19;20748;-62
2022/07/08 01:27:29;;;;;;;14.00;2.80;;;;;;;13.28;100.00;102178.56;7385757;19;20771;-61
2022/07/08 01:29:59;;;;;;;16.63;3.33;;;;;;;13.29;100.00;102182.97;7393659;19;20391;-61
2022/07/08 01:32:32;;;;;;;18.63;2.73;;;;;;;13.30;100.00;102189.03;7384946;19;20401;-61
2022/07/08 01:35:02;;;;;;;8.13;2.07;;;;;;;13.22;100.00;102191.19;7392095;19;20408;-62
2022/07/08 01:37:34;;;;;;;8.43;2.37;;;;;;;13.29;100.00;102190.75;7380176;19;20424;-61
2022/07/08 01:40:03;;;;;;;16.13;2.17;;;;;;;13.39;100.00;102192.13;7397080;19;21095;-62
2022/07/08 01:42:33;;;;;;;19.20;3.10;;;;;;;13.34;100.00;102203.94;7388392;19;21009;-61
2022/07/08 01:45:03;;;;;;;12.77;2.87;;;;;;;13.32;100.00;102214.22;7395088;19;20409;-61
2022/07/08 01:47:32;;;;;;;16.67;2.97;;;;;;;13.31;100.00;102211.53;7386228;19;20405;-61
2022/07/08 01:50:02;;;;;;;16.17;3.73;;;;;;;13.36;100.00;102215.28;7395281;19;20383;-62
2022/07/08 01:52:34;;;;;;;13.97;2.07;;;;;;;13.40;100.00;102211.13;7382431;19;20423;-61
2022/07/08 01:55:03;;;;;;;15.20;2.57;;;;;;;13.39;100.00;102214.53;7394796;19;20935;-62
2022/07/08 01:57:34;;;;;;;7.13;1.73;;;;;;;13.36;100.00;102213.59;7388761;19;20953;-62
2022/07/08 02:00:05;;;;;;;14.60;2.53;;;;;;;13.34;100.00;102219.50;7396896;19;21033;-62
2022/07/08 02:02:40;;;;;;;18.40;4.53;;;;;;;13.40;100.00;102224.09;7387642;19;20416;-61
2022/07/08 02:05:10;;;;;;;15.27;2.57;;;;;;;13.37;100.00;102232.59;7394367;19;20418;-61
2022/07/08 02:07:43;;;;;;;10.60;2.23;;;;;;;13.40;100.00;102231.88;7381200;19;20421;-61
2022/07/08 02:10:13;;;;;;;22.63;3.40;;;;;;;13.31;100.00;102234.88;7395623;19;20391;-61
2022/07/08 02:12:40;;;;;;;15.50;5.30;;;;;;;13.23;100.00;102239.66;7387360;19;20427;-61
2022/07/08 02:15:11;;;;;;;13.27;2.90;;;;;;;13.26;100.00;102232.03;7392936;19;20436;-62
2022/07/08 02:17:41;;;;;;;12.57;3.30;;;;;;;13.29;100.00;102228.72;7386471;19;20417;-61
2022/07/08 02:20:13;;;;;;;11.97;2.60;;;;;;;13.26;100.00;102244.09;7399183;19;21142;-62
2022/07/08 02:22:45;;;;;;;16.20;2.50;;;;;;;13.30;100.00;102252.13;7385938;19;20432;-60
2022/07/08 02:25:15;;;;;;;15.67;2.73;;;;;;;13.17;100.00;102247.97;7393411;19;20421;-61
2022/07/08 02:27:44;;;;;;;11.57;3.00;;;;;;;13.21;100.00;102252.53;7387612;19;20962;-61
2022/07/08 02:30:15;;;;;;;11.60;2.73;;;;;;;13.22;100.00;102263.75;7394368;19;20383;-62
2022/07/08 02:32:44;;;;;;;12.33;2.30;;;;;;;13.17;100.00;102267.81;7386006;19;20414;-62
2022/07/08 02:35:14;;;;;;;13.23;2.67;;;;;;;13.27;100.00;102270.09;7393066;19;20422;-62
2022/07/08 02:37:46;;;;;;;9.10;2.50;;;;;;;13.30;100.00;102287.53;7386875;19;20422;-62
2022/07/08 02:40:15;;;;;;;24.67;4.57;;;;;;;13.16;100.00;102286.75;7394355;19;20985;-62
2022/07/08 02:42:45;;;;;;;11.10;2.27;;;;;;;13.24;100.00;102288.09;7386374;19;20412;-63
2022/07/08 02:45:14;;;;;;;13.00;3.00;;;;;;;13.27;100.00;102306.38;7392873;19;20423;-61
2022/07/08 02:47:44;;;;;;;13.00;2.57;;;;;;;13.29;100.00;102307.38;7385969;19;21188;-62
2022/07/08 02:50:13;;;;;;;18.77;3.13;;;;;;;13.27;100.00;102314.16;7398388;19;20918;-61
2022/07/08 02:52:45;;;;;;;15.60;3.17;;;;;;;13.21;100.00;102321.59;7387296;19;20418;-61
2022/07/08 02:55:15;;;;;;;13.57;2.83;;;;;;;13.17;100.00;102328.31;7393640;19;20444;-62
2022/07/08 02:57:44;;;;;;;14.40;2.60;;;;;;;13.20;100.00;102328.50;7386900;19;20413;-61
2022/07/08 03:00:15;;;;;;;5.67;2.03;;;;;;;13.16;100.00;102330.81;7393143;19;20747;-61
2022/07/08 03:02:44;;;;;;;9.20;2.07;;;;;;;13.16;100.00;102333.38;7386119;19;20411;-60
2022/07/08 03:05:14;;;;;;;10.20;1.67;;;;;;;13.21;100.00;102337.13;7392425;19;21047;-61
2022/07/08 03:07:47;;;;;;;15.67;3.27;;;;;;;13.20;100.00;102341.44;7384948;19;20433;-61
2022/07/08 03:10:16;;;;;;;11.00;2.57;;;;;;;13.15;100.00;102339.38;7393465;19;20392;-61
2022/07/08 03:12:46;;;;;;;8.27;2.13;;;;;;;13.13;100.00;102325.47;7386445;19;20424;-62
2022/07/08 03:15:15;;;;;;;10.20;2.13;;;;;;;13.22;100.00;102320.78;7392082;19;20418;-61
2022/07/08 03:17:45;;;;;;;7.33;2.17;;;;;;;13.14;100.00;102328.16;7384588;19;20420;-61
2022/07/08 03:20:15;;;;;;;14.23;2.33;;;;;;;13.21;100.00;102329.38;7393222;19;20425;-60
2022/07/08 03:22:47;;;;;;;14.70;2.80;;;;;;;13.15;100.00;102324.75;7386267;19;20433;-61
2022/07/08 03:25:16;;;;;;;13.87;2.33;;;;;;;13.15;100.00;102323.84;7392218;19;20421;-61
2022/07/08 03:27:48;;;;;;;6.90;2.50;;;;;;;13.14;100.00;102324.66;7384573;19;20431;-62
2022/07/08 03:30:17;;;;;;;8.40;2.40;;;;;;;13.17;100.00;102312.75;7392944;19;20392;-61
2022/07/08 03:32:47;;;;;;;10.60;2.43;;;;;;;13.12;100.00;102313.31;7385417;19;20417;-62
2022/07/08 03:35:16;;;;;;;18.73;2.67;;;;;;;12.98;100.00;102315.13;7391052;19;20409;-61
2022/07/08 03:37:49;;;;;;;8.47;2.30;;;;;;;12.96;100.00;102317.63;7385066;19;20772;-61
2022/07/08 03:43:01;;;;;;;12.40;2.53;;;;;;;13.02;100.00;102320.56;7384922;19;20423;-61
2022/07/08 03:45:30;;;;;;;7.40;1.90;;;;;;;13.07;100.00;102319.13;7391124;19;20480;-61
2022/07/08 03:48:00;;;;;;;118.20;57.83;;;;;;;13.31;100.00;102316.13;7378680;19;20424;-62
2022/07/08 03:50:30;;;;;;;18.20;7.90;;;;;;;13.40;100.00;102320.03;7392570;19;20402;-62
2022/07/08 03:53:02;;;;;;;31.97;18.37;;;;;;;13.38;100.00;102327.69;7383366;19;20417;-61
2022/07/08 03:55:32;;;;;;;13.30;2.77;;;;;;;13.18;100.00;102329.22;7390839;19;20412;-61
2022/07/08 03:58:01;;;;;;;12.43;4.40;;;;;;;13.21;100.00;102324.19;7386728;19;20962;-62
2022/07/08 04:00:31;;;;;;;18.27;2.87;;;;;;;13.27;100.00;102329.72;7392230;19;20396;-61
2022/07/08 04:03:07;;;;;;;13.00;3.00;;;;;;;13.21;100.00;102324.19;7382398;19;20422;-62
2022/07/08 04:05:38;;;;;;;15.17;2.43;;;;;;;13.16;100.00;102330.81;7390582;19;20397;-61
2022/07/08 04:08:10;;;;;;;12.83;2.47;;;;;;;13.18;100.00;102330.09;7382996;19;20773;-61
2022/07/08 04:10:39;;;;;;;10.33;2.70;;;;;;;13.08;100.00;102339.03;7391963;19;20382;-60
2022/07/08 04:13:09;;;;;;;11.90;3.00;;;;;;;13.04;100.00;102331.00;7389738;19;20421;-61
2022/07/08 04:15:38;;;;;;;9.30;2.67;;;;;;;13.08;100.00;102328.69;7397350;19;20413;-61
2022/07/08 04:18:08;;;;;;;10.93;3.50;;;;;;;13.07;100.00;102334.66;7390845;19;20419;-62
2022/07/08 04:20:38;;;;;;;8.67;2.43;;;;;;;13.17;100.00;102327.44;7399254;19;20388;-61
2022/07/08 04:23:10;;;;;;;8.20;2.00;;;;;;;13.14;100.00;102337.59;7392182;19;20421;-61
2022/07/08 04:25:40;;;;;;;9.63;2.53;;;;;;;13.18;100.00;102336.97;7401284;19;20423;-61
2022/07/08 04:28:09;;;;;;;14.27;3.07;;;;;;;13.06;100.00;102338.06;7391755;19;20422;-61
2022/07/08 04:30:39;;;;;;;13.43;2.00;;;;;;;13.09;100.00;102339.94;7398767;19;20747;-61
2022/07/08 04:33:09;;;;;;;16.70;2.60;;;;;;;13.21;100.00;102334.56;7389690;19;20421;-62
2022/07/08 04:35:38;;;;;;;12.67;3.10;;;;;;;13.17;100.00;102338.66;7396706;19;20413;-62
2022/07/08 04:38:11;;;;;;;11.33;2.90;;;;;;;13.17;100.00;102337.78;7392658;19;20412;-62
2022/07/08 04:40:40;;;;;;;14.30;2.70;;;;;;;13.10;100.00;102341.72;7398506;19;20390;-61
2022/07/08 04:43:12;;;;;;;10.30;2.70;;;;;;;13.13;100.00;102341.00;7393708;19;20447;-61
2022/07/08 04:45:47;;;;;;;8.10;2.13;;;;;;;13.07;100.00;102339.84;7400662;19;20426;-61
2022/07/08 04:48:16;;;;;;;20.37;2.90;;;;;;;13.19;100.00;102336.19;7389666;19;20492;-61
2022/07/08 04:50:46;;;;;;;13.50;2.00;;;;;;;13.30;100.00;102324.72;7398241;19;20902;-62
2022/07/08 04:53:18;;;;;;;9.70;2.33;;;;;;;13.24;100.00;102314.88;7390043;19;21002;-62
2022/07/08 04:55:48;;;;;;;12.90;2.83;;;;;;;13.24;100.00;102319.19;7396030;19;20402;-60
2022/07/08 04:58:17;;;;;;;11.23;2.67;;;;;;;13.28;100.00;102326.31;7389246;19;20778;-61
2022/07/08 05:00:47;;;;;;;12.37;1.97;;;;;;;13.35;100.00;102328.44;7397823;19;20391;-61
2022/07/08 05:03:16;;;;;;;13.27;2.30;;;;;;;13.33;100.00;102339.53;7390140;19;20416;-61
2022/07/08 05:05:52;;;;;;;12.80;2.00;;;;;;;13.34;100.00;102331.81;7395882;19;20446;-60
2022/07/08 05:08:24;;;;;;;9.47;2.33;;;;;;;13.41;100.00;102338.25;7386383;19;20464;-62
2022/07/08 05:10:54;;;;;;;8.03;1.93;;;;;;;13.40;100.00;102341.66;7397418;19;20472;-61
2022/07/08 05:13:24;;;;;;;11.83;2.53;;;;;;;13.48;100.00;102344.69;7388885;19;20428;-61
2022/07/08 05:15:54;;;;;;;11.60;2.30;;;;;;;13.48;100.00;102339.50;7395456;19;20417;-62
2022/07/08 05:18:23;;;;;;;20.00;2.10;;;;;;;13.47;100.00;102337.72;7388291;19;20439;-61
2022/07/08 05:20:53;;;;;;;11.50;2.13;;;;;;;13.49;100.00;102338.72;7397316;19;20386;-60
2022/07/08 05:23:25;;;;;;;10.87;2.60;;;;;;;13.49;100.00;102342.19;7389357;19;20778;-62
2022/07/08 05:25:54;;;;;;;11.63;2.00;;;;;;;13.56;100.00;102335.66;7395149;19;20413;-62
2022/07/08 05:28:24;;;;;;;11.23;2.70;;;;;;;13.62;100.00;102337.69;7387765;19;20440;-61
2022/07/08 05:30:53;;;;;;;9.83;2.07;;;;;;;13.68;100.00;102327.63;7396855;19;20397;-62
2022/07/08 05:33:23;;;;;;;13.50;2.37;;;;;;;13.71;100.00;102330.41;7387382;19;20416;-62
2022/07/08 05:35:52;;;;;;;12.07;2.90;;;;;;;13.70;100.00;102327.72;7394471;19;20424;-62
2022/07/08 05:38:25;;;;;;;8.70;2.20;;;;;;;13.68;100.00;102335.41;7388634;19;20963;-61
2022/07/08 05:40:55;;;;;;;13.87;2.57;;;;;;;13.75;100.00;102328.88;7396671;19;20905;-61
2022/07/08 05:43:24;;;;;;;10.20;2.50;;;;;;;13.81;100.00;102324.00;7387795;19;20429;-62
2022/07/08 05:45:54;;;;;;;8.47;2.00;;;;;;;13.79;100.00;102336.00;7394746;19;20418;-62
2022/07/08 05:48:24;;;;;;;15.40;2.50;;;;;;;13.88;100.00;102341.69;7387440;19;20436;-62
2022/07/08 05:50:54;;;;;;;7.77;2.13;;;;;;;13.94;100.00;102340.22;7396460;19;20401;-61
2022/07/08 05:53:26;;;;;;;7.80;1.80;;;;;;;13.95;100.00;102353.25;7388622;19;20406;-61
2022/07/08 05:55:56;;;;;;;9.00;2.47;;;;;;;13.98;100.00;102362.91;7394251;19;20966;-61
2022/07/08 05:58:25;;;;;;;10.53;2.17;;;;;;;14.03;100.00;102362.38;7384671;19;20420;-62
2022/07/08 06:00:55;;;;;;;17.33;2.67;;;;;;;14.09;100.00;102366.97;7396294;19;20460;-62
2022/07/08 06:03:25;;;;;;;10.23;2.53;;;;;;;14.16;100.00;102371.69;7386758;19;20422;-62
2022/07/08 06:05:54;;;;;;;16.20;2.17;;;;;;;14.16;100.00;102376.88;7394126;19;20414;-62
2022/07/08 06:08:31;;;;;;;8.00;2.20;;;;;;;14.21;100.00;102391.81;7386600;19;20458;-62
2022/07/08 06:11:01;;;;;;;7.23;2.20;;;;;;;14.20;100.00;102405.59;7395723;19;20411;-62
2022/07/08 06:13:31;;;;;;;13.87;2.90;;;;;;;14.20;100.00;102401.28;7387308;19;21242;-62
2022/07/08 06:16:01;;;;;;;7.00;1.60;;;;;;;14.20;100.00;102411.66;7393620;19;20421;-61
2022/07/08 06:18:30;;;;;;;13.77;2.20;;;;;;;14.18;100.00;102413.31;7384815;19;20426;-62
2022/07/08 06:21:01;;;;;;;15.10;2.40;;;;;;;14.28;100.00;102415.59;7395370;19;20390;-61
2022/07/08 06:23:34;;;;;;;12.80;2.97;;;;;;;14.45;100.00;102397.38;7386477;19;20502;-62
2022/07/08 06:26:04;;;;;;;12.23;3.70;;;;;;;14.62;100.00;102421.66;7393344;19;20442;-61
2022/07/08 06:28:34;;;;;;;155.93;98.57;;;;;;;14.65;100.00;102427.00;7386465;19;20435;-62
2022/07/08 06:31:03;;;;;;;10.27;3.73;;;;;;;14.74;100.00;102420.47;7398091;19;20922;-61
2022/07/08 06:33:33;;;;;;;13.13;5.03;;;;;;;14.97;100.00;102412.19;7387181;19;20758;-61
2022/07/08 06:36:02;;;;;;;24.03;12.03;;;;;;;15.07;100.00;102415.25;7395992;19;20419;-62
2022/07/08 06:38:34;;;;;;;45.13;29.37;;;;;;;15.31;100.00;102427.66;7387763;19;21070;-62
2022/07/08 06:41:04;;;;;;;25.47;9.30;;;;;;;15.25;100.00;102444.75;7394648;19;20392;-62
2022/07/08 06:43:34;;;;;;;11.60;2.87;;;;;;;15.17;100.00;102451.25;7387511;19;20777;-62
2022/07/08 06:46:03;;;;;;;16.10;3.07;;;;;;;15.19;100.00;102472.16;7392819;19;20479;-62
2022/07/08 06:48:36;;;;;;;11.07;3.30;;;;;;;15.32;100.00;102481.44;7385276;19;20446;-62
2022/07/08 06:51:06;;;;;;;15.83;2.23;;;;;;;15.44;100.00;102500.25;7394339;19;20390;-61
2022/07/08 06:56:20;;;;;;;5.67;1.80;;;;;;;15.63;100.00;102516.75;7392012;19;20427;-62
2022/07/08 06:58:50;;;;;;;117.03;73.80;;;;;;;15.71;100.00;102514.53;7384304;19;20434;-62
2022/07/08 07:01:19;;;;;;;21.23;9.80;;;;;;;15.68;100.00;102525.69;7393438;19;20476;-61
2022/07/08 07:03:49;;;;;;;21.23;7.00;;;;;;;15.59;100.00;102517.44;7386202;19;20770;-62
2022/07/08 07:06:19;;;;;;;10.57;2.03;;;;;;;15.54;100.00;102509.41;7391981;19;20433;-61
2022/07/08 07:08:51;;;;;;;6.67;2.00;;;;;;;15.44;100.00;102502.84;7385096;19;20442;-62
2022/07/08 07:11:20;;;;;;;8.97;2.20;;;;;;;15.41;100.00;102510.50;7394722;19;20378;-62
2022/07/08 07:13:50;;;;;;;7.60;1.80;;;;;;;15.32;100.00;102505.75;7385022;19;20486;-61
2022/07/08 07:16:20;;;;;;;8.50;2.33;;;;;;;15.23;100.00;102511.38;7391900;19;20424;-62
2022/07/08 07:18:49;;;;;;;17.13;4.20;;;;;;;15.20;100.00;102511.22;7382721;19;20422;-61
2022/07/08 07:21:19;;;;;;;9.40;2.43;;;;;;;15.09;100.00;102512.38;7391677;19;20377;-62
2022/07/08 07:23:51;;;;;;;7.73;1.80;;;;;;;15.03;100.00;102486.06;7384196;19;20483;-62
2022/07/08 07:26:21;;;;;;;11.60;2.10;;;;;;;14.92;100.00;102470.81;7391527;19;20405;-61
2022/07/08 07:28:50;;;;;;;9.53;2.60;;;;;;;14.95;100.00;102452.78;7382710;19;20445;-62
2022/07/08 07:31:20;;;;;;;11.50;2.60;;;;;;;15.05;100.00;102468.84;7396532;19;21003;-61
2022/07/08 07:33:50;;;;;;;6.23;1.97;;;;;;;15.09;100.00;102470.78;7387868;19;20874;-61
2022/07/08 07:36:19;;;;;;;11.87;3.37;;;;;;;15.09;100.00;102470.78;7391167;19;20431;-61
2022/07/08 07:38:51;;;;;;;10.40;2.27;;;;;;;15.08;100.00;102474.22;7387040;19;20789;-61
2022/07/08 07:41:21;;;;;;;8.90;3.00;;;;;;;15.08;100.00;102471.63;7392552;19;20458;-61
2022/07/08 07:43:51;;;;;;;14.33;2.47;;;;;;;15.08;100.00;102459.50;7384141;19;20409;-62
2022/07/08 07:46:20;;;;;;;9.33;2.33;;;;;;;15.16;100.00;102470.28;7393831;19;20498;-61
2022/07/08 07:48:50;;;;;;;9.53;2.63;;;;;;;15.08;100.00;102474.22;7391952;19;20963;-62
2022/07/08 07:51:21;;;;;;;7.30;2.47;;;;;;;15.01;100.00;102465.19;7399928;19;20383;-62
2022/07/08 07:53:53;;;;;;;6.67;2.50;;;;;;;14.89;100.00;102455.09;7392113;19;20474;-62
2022/07/08 07:56:23;;;;;;;8.93;2.27;;;;;;;14.88;100.00;102442.00;7397369;19;20418;-61
2022/07/08 07:58:53;;;;;;;8.53;1.90;;;;;;;14.92;100.00;102446.56;7391699;19;20423;-62
2022/07/08 08:01:22;;;;;;;36.90;11.07;;;;;;;14.93;100.00;102430.16;7398691;19;20395;-61
2022/07/08 08:03:52;;;;;;;12.60;3.17;;;;;;;14.89;100.00;102423.91;7394671;19;20459;-61
2022/07/08 08:06:22;;;;;;;16.27;3.63;;;;;;;14.85;100.00;102411.56;7396733;19;20415;-61
2022/07/08 08:08:56;;;;;;;8.23;2.50;;;;;;;14.83;100.00;102408.00;7384696;19;20419;-61
2022/07/08 08:11:25;;;;;;;8.53;2.70;;;;;;;14.75;100.00;102393.72;7399300;19;20390;-62
2022/07/08 08:13:55;;;;;;;5.80;2.17;;;;;;;14.79;100.00;102395.66;7391909;19;20435;-61
2022/07/08 08:16:24;;;;;;;45.80;14.27;;;;;;;14.78;100.00;102387.00;7396657;19;20412;-62
2022/07/08 08:18:54;;;;;;;6.50;1.97;;;;;;;14.78;100.00;102387.00;7391384;19;21022;-62
2022/07/08 08:21:24;;;;;;;16.17;5.00;;;;;;;14.80;100.00;102379.25;7398979;19;20389;-62
2022/07/08 08:23:56;;;;;;;22.50;7.77;;;;;;;14.59;100.00;102382.53;7389742;19;20425;-61
2022/07/08 08:26:33;;;;;;;7.63;2.20;;;;;;;14.59;100.00;102369.53;7396229;19;20416;-61
2022/07/08 08:29:03;;;;;;;11.10;2.70;;;;;;;14.56;100.00;102369.41;7394104;19;20467;-61
2022/07/08 08:31:32;;;;;;;12.73;2.40;;;;;;;14.63;100.00;102362.78;7401468;19;20495;-60
2022/07/08 08:34:02;;;;;;;3.90;2.27;;;;;;;14.65;100.00;102364.66;7389023;19;20771;-62
2022/07/08 08:36:32;;;;;;;11.27;2.27;;;;;;;14.58;100.00;102358.25;7395582;19;20428;-62
2022/07/08 08:39:04;;;;;;;7.60;2.57;;;;;;;14.63;100.00;102366.28;7385335;19;20406;-62
2022/07/08 08:41:35;;;;;;;23.40;6.67;;;;;;;14.62;100.00;102355.81;7399742;19;20406;-62
2022/07/08 08:44:05;;;;;;;13.13;3.63;;;;;;;14.54;100.00;102365.81;7389371;19;20498;-61
2022/07/08 08:46:35;;;;;;;11.40;3.07;;;;;;;14.67;100.00;102363.00;7396015;19;20427;-62
2022/07/08 08:49:05;;;;;;;7.67;3.00;;;;;;;14.68;100.00;102358.72;7388251;19;20417;-61
2022/07/08 08:51:34;;;;;;;4.90;1.97;;;;;;;14.75;100.00;102365.13;7397882;19;20472;-61
2022/07/08 08:54:08;;;;;;;9.03;3.23;;;;;;;14.78;100.00;102366.22;7389444;19;20400;-62
2022/07/08 08:56:39;;;;;;;9.03;2.70;;;;;;;14.85;100.00;102375.19;7395425;19;20431;-62
2022/07/08 08:59:09;;;;;;;12.50;3.23;;;;;;;14.76;100.00;102372.13;7394806;19;20419;-62
2022/07/08 09:01:39;;;;;;;19.90;6.57;;;;;;;14.83;100.00;102375.09;7397575;19;20386;-63
2022/07/08 09:04:10;;;;;;;55.97;14.50;;;;;;;14.84;100.00;102373.41;7396207;19;20414;-62
2022/07/08 09:06:40;;;;;;;61.33;15.80;;;;;;;14.82;100.00;102382.84;7397940;19;20384;-61
2022/07/08 09:09:12;;;;;;;4.70;2.50;;;;;;;14.80;100.00;102374.06;7397018;19;20413;-62
2022/07/08 09:11:42;;;;;;;31.03;7.83;;;;;;;14.80;100.00;102374.06;7389874;19;20463;-63
2022/07/08 09:14:17;;;;;;;76.07;18.70;;;;;;;14.77;100.00;102368.72;7395869;19;20392;-61
2022/07/08 09:17:12;;;;;;;18.53;6.90;;;;;;;14.74;100.00;102356.47;7388989;19;20383;-61
2022/07/08 09:19:44;;;;;;;14.43;3.67;;;;;;;14.75;100.00;102354.75;7396632;19;20815;-62
2022/07/08 09:22:19;;;;;;;8.30;3.30;;;;;;;14.90;100.00;102350.31;7389935;19;20428;-60
2022/07/08 09:24:51;;;;;;;6.53;2.40;;;;;;;14.99;100.00;102350.75;7396092;19;20740;-63
2022/07/08 09:27:21;;;;;;;4.70;1.77;;;;;;;15.03;100.00;102344.00;7388881;19;20417;-63
2022/07/08 09:30:01;;;;;;;7.17;2.10;;;;;;;15.16;100.00;102336.78;7395529;19;20377;-61
2022/07/08 09:32:31;;;;;;;6.10;2.13;;;;;;;15.16;100.00;102334.19;7387471;19;20483;-62
2022/07/08 09:35:01;;;;;;;5.13;2.30;;;;;;;15.28;100.00;102320.91;7395373;19;20434;-62
2022/07/08 09:37:35;;;;;;;3.83;1.90;;;;;;;15.33;100.00;102333.28;7386922;19;20968;-62
2022/07/08 09:40:18;;;;;;;3.43;2.50;;;;;;;15.16;100.00;102334.19;7396490;19;21317;-61
2022/07/08 09:42:53;;;;;;;5.70;2.43;;;;;;;15.09;100.00;102338.22;7389004;19;20424;-62
2022/07/08 09:45:29;;;;;;;28.00;8.30;;;;;;;15.14;100.00;102344.53;7394867;19;20428;-63
2022/07/08 09:48:06;;;;;;;8.00;2.70;;;;;;;15.09;100.00;102339.09;7385642;19;20420;-63
2022/07/08 09:50:41;;;;;;;3.50;2.10;;;;;;;15.18;100.00;102338.66;7394831;19;20383;-60
2022/07/08 09:53:31;;;;;;;6.93;2.27;;;;;;;15.25;100.00;102329.44;7387911;19;20759;-61
2022/07/08 09:56:06;;;;;;;3.87;1.83;;;;;;;15.16;100.00;102335.09;7393608;19;20408;-60
2022/07/08 09:58:37;;;;;;;6.33;1.90;;;;;;;15.08;100.00;102344.25;7388799;19;20419;-62
2022/07/08 10:01:07;;;;;;;7.00;2.97;;;;;;;15.20;100.00;102338.72;7396047;19;20375;-62
2022/07/08 10:03:38;;;;;;;3.80;1.70;;;;;;;15.23;100.00;102334.56;7388098;19;20426;-62
2022/07/08 10:06:08;;;;;;;3.10;1.80;;;;;;;15.19;100.00;102335.25;7393337;19;20490;-62
2022/07/08 10:08:38;;;;;;;9.10;1.80;;;;;;;15.19;100.00;102344.75;7386373;19;20429;-62
2022/07/08 10:11:11;;;;;;;2.47;1.77;;;;;;;15.15;100.00;102338.53;7393640;19;20385;-62
2022/07/08 10:13:42;;;;;;;4.63;1.60;;;;;;;15.12;100.00;102340.97;7386654;19;20490;-61
2022/07/08 10:16:12;;;;;;;3.30;2.00;;;;;;;15.15;100.00;102345.41;7392928;19;20407;-62
2022/07/08 10:18:45;;;;;;;2.70;1.70;;;;;;;15.14;100.00;102344.53;7387254;19;20423;-62
2022/07/08 10:21:16;;;;;;;4.80;1.77;;;;;;;15.08;100.00;102346.84;7395308;19;20387;-61
2022/07/08 10:23:48;;;;;;;6.60;2.03;;;;;;;15.04;100.00;102347.50;7387381;19;20417;-64
2022/07/08 10:26:23;;;;;;;3.20;1.73;;;;;;;15.11;100.00;102344.38;7392925;19;20416;-62
2022/07/08 10:29:02;;;;;;;4.33;2.30;;;;;;;15.01;100.00;102342.16;7387408;19;20415;-61
2022/07/08 10:31:32;;;;;;;4.00;2.00;;;;;;;14.88;100.00;102351.97;7395513;19;20408;-61
2022/07/08 10:34:02;;;;;;;3.93;2.07;;;;;;;14.92;100.00;102355.59;7389148;19;20462;-61
2022/07/08 10:36:43;;;;;;;6.00;2.80;;;;;;;15.05;100.00;102359.69;7394739;19;20504;-64
2022/07/08 10:39:14;;;;;;;5.30;2.57;;;;;;;15.17;100.00;102364.59;7394002;19;20924;-63
2022/07/08 10:41:58;;;;;;;7.77;2.40;;;;;;;15.53;100.00;102365.44;7388797;19;20387;-62
2022/07/08 10:44:52;;;;;;;5.87;2.70;;;;;;;15.66;100.00;102355.63;7393356;19;20465;-60
2022/07/08 10:47:28;;;;;;;3.90;2.30;;;;;;;15.88;100.00;102359.19;7385694;19;20757;-63
2022/07/08 10:50:06;;;;;;;4.10;2.30;;;;;;;16.04;100.00;102358.19;7394485;19;20389;-62
2022/07/08 10:52:41;;;;;;;6.50;2.27;;;;;;;16.11;100.00;102359.38;7385127;19;20939;-62
2022/07/08 10:55:13;;;;;;;4.13;2.07;;;;;;;16.18;100.00;102366.63;7392747;19;20495;-61
2022/07/08 10:57:57;;;;;;;5.70;2.90;;;;;;;16.30;100.00;102372.38;7384921;19;20572;-61
2022/07/08 11:00:28;;;;;;;4.43;1.80;;;;;;;16.54;100.00;102374.28;7393996;19;20475;-62
2022/07/08 11:03:01;;;;;;;4.60;2.30;;;;;;;16.41;100.00;102374.56;7386540;19;20423;-64
2022/07/08 11:05:38;;;;;;;5.87;2.43;;;;;;;16.34;100.00;102370.78;7392690;19;20437;-62
2022/07/08 11:08:26;;;;;;;6.77;2.13;;;;;;;16.42;100.00;102390.25;7387442;19;20407;-62
2022/07/08 11:10:56;;;;;;;6.33;2.13;;;;;;;16.32;100.00;102390.69;7392945;19;20515;-62
2022/07/08 11:13:28;;;;;;;26.97;14.43;;;;;;;16.22;100.00;102397.19;7384825;19;20439;-62
2022/07/08 11:16:02;;;;;;;87.17;41.13;;;;;;;16.38;100.00;102400.47;7393859;19;20444;-61
2022/07/08 11:18:32;;;;;;;9.03;3.50;;;;;;;16.48;100.00;102392.25;7387949;19;20463;-60
2022/07/08 11:21:03;;;;;;;34.23;17.67;;;;;;;16.76;100.00;102393.41;7395244;19;20412;-60
2022/07/08 11:23:33;;;;;;;3.37;2.00;;;;;;;16.84;100.00;102389.44;7386621;19;20774;-59
2022/07/08 11:26:04;;;;;;;8.60;3.13;;;;;;;16.80;100.00;102390.13;7394174;19;20448;-61
2022/07/08 11:28:38;;;;;;;23.70;9.80;;;;;;;16.73;100.00;102398.50;7386219;19;20457;-62
2022/07/08 11:31:07;;;;;;;21.40;10.03;;;;;;;16.91;100.00;102403.59;7394762;19;20414;-62
2022/07/08 11:33:42;;;;;;;7.40;2.60;;;;;;;17.23;100.00;102421.44;7384499;19;20470;-61
2022/07/08 11:36:17;;;;;;;15.03;5.10;;;;;;;17.63;100.00;102420.41;7392813;19;20538;-61